Time;durP1;ratioP1;P1;durP2;ratioP2;P2;SDS_P1;SDS_P2;PMS_P1;PMS_P2;Temp;Humidity;BMP_temperature;BMP_pressure;BME280_temperature;BME280_humidity;BME280_pressure;Samples;Min_cycle;Max_cycle;Signal;HPM_P1;HPM_P2
2020/12/13 00:00:27;;;;;;;5.47;4.97;;;9.60;99.90;;;;;;5076332;28;20390;-58
2020/12/13 00:02:56;;;;;;;5.83;5.33;;;9.50;99.90;;;;;;5075990;28;20394;-57
2020/12/13 00:05:23;;;;;;;6.17;5.63;;;9.60;99.90;;;;;;5075477;28;20855;-57
2020/12/13 00:07:55;;;;;;;5.10;4.70;;;9.60;99.90;;;;;;5075779;28;20447;-57
2020/12/13 00:10:21;;;;;;;6.77;6.17;;;9.40;99.90;;;;;;5075682;28;20488;-57
2020/12/13 00:12:47;;;;;;;5.90;5.40;;;9.20;99.90;;;;;;5075691;28;20398;-58
2020/12/13 00:15:13;;;;;;;5.80;5.20;;;9.40;99.90;;;;;;5075717;28;20990;-57
2020/12/13 00:17:39;;;;;;;6.37;5.77;;;9.40;99.90;;;;;;5074867;28;20257;-58
2020/12/13 00:20:06;;;;;;;6.43;5.83;;;9.40;99.90;;;;;;5075343;28;20907;-57
2020/12/13 00:22:32;;;;;;;7.07;5.50;;;9.50;99.90;;;;;;5075700;28;20671;-55
2020/12/13 00:24:58;;;;;;;7.13;6.43;;;9.60;99.90;;;;;;5075703;28;20477;-54
2020/12/13 00:27:24;;;;;;;5.50;5.00;;;9.50;99.90;;;;;;5075872;28;20976;-55
2020/12/13 00:29:50;;;;;;;5.60;5.10;;;9.50;99.90;;;;;;5074370;28;20503;-55
2020/12/13 00:32:15;;;;;;;4.80;4.40;;;9.50;99.90;;;;;;5074988;28;20588;-57
2020/12/13 00:34:41;;;;;;;5.37;4.87;;;9.50;99.90;;;;;;5075086;28;20177;-59
2020/12/13 00:37:07;;;;;;;6.10;5.60;;;9.50;99.90;;;;;;5075062;28;20198;-59
2020/12/13 00:39:34;;;;;;;6.33;5.83;;;9.60;99.90;;;;;;5075512;28;20266;-58
2020/12/13 00:42:00;;;;;;;4.83;4.43;;;9.40;99.90;;;;;;5075614;28;20608;-57
2020/12/13 00:44:26;;;;;;;6.33;5.33;;;9.40;99.90;;;;;;5075766;28;20417;-59
2020/12/13 00:46:53;;;;;;;6.33;5.63;;;9.50;99.90;;;;;;5074971;28;20434;-58
2020/12/13 00:49:18;;;;;;;5.30;4.80;;;9.50;99.90;;;;;;5074458;28;20932;-59
2020/12/13 00:51:44;;;;;;;4.90;4.50;;;9.60;99.90;;;;;;5074737;28;20486;-58
2020/12/13 00:54:10;;;;;;;3.90;3.60;;;9.60;99.90;;;;;;5074852;28;20167;-57
2020/12/13 00:56:35;;;;;;;6.53;4.53;;;9.50;99.90;;;;;;5075098;28;20200;-58
2020/12/13 00:59:01;;;;;;;4.87;4.47;;;9.50;99.90;;;;;;5077329;28;20549;-57
2020/12/13 01:01:27;;;;;;;3.90;3.60;;;9.60;99.90;;;;;;5083444;28;20255;-58
2020/12/13 01:03:52;;;;;;;4.40;3.77;;;9.60;99.90;;;;;;5074745;28;20658;-58
2020/12/13 01:06:24;;;;;;;3.83;3.53;;;9.40;99.90;;;;;;5083770;28;20183;-58
2020/12/13 01:08:51;;;;;;;3.80;3.50;;;9.30;99.90;;;;;;5088492;28;20183;-58
2020/12/13 01:11:24;;;;;;;4.60;4.10;;;9.30;99.90;;;;;;5095062;28;20482;-58
2020/12/13 01:13:50;;;;;;;4.10;3.80;;;9.40;99.90;;;;;;5094874;28;20396;-58
2020/12/13 01:16:17;;;;;;;4.03;3.63;;;9.50;99.90;;;;;;5094466;28;20454;-59
2020/12/13 01:18:43;;;;;;;3.63;3.33;;;9.50;99.90;;;;;;5094247;28;20410;-58
2020/12/13 01:21:22;;;;;;;3.87;3.57;;;9.50;99.90;;;;;;5094209;28;20401;-58
2020/12/13 01:23:48;;;;;;;5.33;4.83;;;9.60;99.90;;;;;;5094525;28;20424;-58
2020/12/13 01:26:15;;;;;;;4.10;3.80;;;9.60;99.90;;;;;;5075628;28;20422;-58
2020/12/13 01:28:41;;;;;;;5.27;4.77;;;9.60;99.90;;;;;;5074299;28;20247;-56
2020/12/13 01:31:07;;;;;;;4.43;3.60;;;9.60;99.90;;;;;;5073944;28;20453;-58
2020/12/13 01:33:33;;;;;;;4.20;3.57;;;9.50;99.90;;;;;;5073323;28;20439;-57
2020/12/13 01:35:59;;;;;;;3.90;3.60;;;9.40;99.90;;;;;;5073545;28;20409;-58
2020/12/13 01:38:25;;;;;;;3.97;3.40;;;9.30;99.90;;;;;;5073774;28;20192;-59
2020/12/13 01:40:58;;;;;;;3.70;3.40;;;9.30;99.90;;;;;;5074104;28;20433;-58
2020/12/13 01:43:24;;;;;;;4.50;4.10;;;9.20;99.90;;;;;;5074025;28;20266;-58
2020/12/13 01:45:50;;;;;;;3.90;3.50;;;9.20;99.90;;;;;;5072931;28;20545;-58
2020/12/13 01:48:16;;;;;;;3.90;3.60;;;9.10;99.90;;;;;;5073910;28;20436;-58
2020/12/13 01:50:54;;;;;;;5.03;4.63;;;9.00;99.90;;;;;;5073130;28;20461;-57
2020/12/13 01:53:24;;;;;;;4.33;3.97;;;8.90;99.90;;;;;;5074039;28;20382;-58
2020/12/13 01:55:52;;;;;;;4.30;3.90;;;9.00;99.90;;;;;;5073746;28;20461;-58
2020/12/13 01:58:28;;;;;;;4.60;4.20;;;9.00;99.90;;;;;;5073629;28;20425;-56
2020/12/13 02:00:58;;;;;;;4.53;4.20;;;9.10;99.90;;;;;;5073981;28;20900;-54
2020/12/13 02:03:43;;;;;;;5.90;3.97;;;9.10;99.90;;;;;;5073583;28;20413;-58
2020/12/13 02:06:23;;;;;;;4.20;3.80;;;9.20;99.90;;;;;;5073447;28;20398;-56
2020/12/13 02:08:49;;;;;;;4.17;3.87;;;9.10;99.90;;;;;;5073911;28;20878;-58
2020/12/13 02:11:16;;;;;;;4.30;3.90;;;9.10;99.90;;;;;;5073620;28;20448;-59
2020/12/13 02:13:41;;;;;;;3.23;2.93;;;9.20;99.90;;;;;;5073858;28;20439;-54
2020/12/13 02:16:08;;;;;;;3.47;3.27;;;9.20;99.90;;;;;;5074277;28;20459;-53
2020/12/13 02:18:34;;;;;;;4.40;3.43;;;9.20;99.90;;;;;;5073860;28;20188;-55
2020/12/13 02:21:01;;;;;;;3.87;3.57;;;9.30;99.90;;;;;;5073261;28;20412;-57
2020/12/13 02:23:29;;;;;;;5.20;3.43;;;9.20;99.90;;;;;;5073393;28;20405;-54
2020/12/13 02:25:55;;;;;;;3.47;3.17;;;9.30;99.90;;;;;;5071751;28;20504;-55
2020/12/13 02:28:20;;;;;;;4.40;4.00;;;9.40;99.90;;;;;;5073014;28;20525;-55
2020/12/13 02:30:47;;;;;;;4.40;4.00;;;9.40;99.90;;;;;;5074172;28;20196;-55
2020/12/13 02:33:13;;;;;;;4.23;3.83;;;9.40;99.90;;;;;;5073904;28;20195;-55
2020/12/13 02:35:39;;;;;;;3.83;3.43;;;9.40;99.90;;;;;;5073599;28;20406;-54
2020/12/13 02:38:05;;;;;;;3.43;3.17;;;9.30;99.90;;;;;;5073739;28;20561;-58
2020/12/13 02:40:31;;;;;;;3.33;3.03;;;9.30;99.90;;;;;;5073411;28;20179;-58
2020/12/13 02:42:57;;;;;;;4.17;3.87;;;9.30;99.90;;;;;;5073503;28;20177;-58
2020/12/13 02:45:22;;;;;;;3.40;3.10;;;9.30;99.90;;;;;;5073263;28;20872;-59
2020/12/13 02:47:48;;;;;;;3.70;3.40;;;9.30;99.90;;;;;;5072702;28;20188;-59
2020/12/13 02:50:14;;;;;;;3.77;3.47;;;9.30;99.90;;;;;;5072762;28;20203;-59
2020/12/13 02:52:39;;;;;;;4.60;3.83;;;9.40;99.90;;;;;;5073155;28;20556;-54
2020/12/13 02:55:05;;;;;;;2.93;2.70;;;9.40;99.90;;;;;;5073510;28;20647;-56
2020/12/13 02:57:30;;;;;;;3.10;2.90;;;9.30;99.90;;;;;;5096747;28;20259;-58
2020/12/13 02:59:56;;;;;;;3.10;2.80;;;9.20;99.90;;;;;;5097412;28;20240;-56
2020/12/13 03:02:21;;;;;;;3.60;3.30;;;9.30;99.90;;;;;;5097312;28;20182;-55
2020/12/13 03:04:47;;;;;;;3.20;2.90;;;9.30;99.90;;;;;;5097052;28;20227;-55
2020/12/13 03:07:12;;;;;;;3.80;3.50;;;9.30;99.90;;;;;;5097366;28;20271;-58
2020/12/13 03:09:38;;;;;;;2.93;2.73;;;9.30;99.90;;;;;;5097581;28;20171;-58
2020/12/13 03:12:05;;;;;;;2.97;2.50;;;9.40;99.90;;;;;;5097042;28;20281;-55
2020/12/13 03:14:31;;;;;;;2.90;2.70;;;9.30;99.90;;;;;;5097325;28;20167;-58
2020/12/13 03:16:57;;;;;;;2.83;2.63;;;9.20;99.90;;;;;;5097613;28;20923;-56
2020/12/13 03:19:22;;;;;;;3.13;2.83;;;9.30;99.90;;;;;;5097392;28;20439;-56
2020/12/13 03:21:48;;;;;;;2.70;2.50;;;9.30;99.90;;;;;;5096701;28;20172;-54
2020/12/13 03:24:15;;;;;;;2.67;2.47;;;9.20;99.90;;;;;;5094938;28;20627;-54
2020/12/13 03:26:41;;;;;;;3.37;3.07;;;9.20;99.90;;;;;;5077387;28;20182;-56
2020/12/13 03:29:07;;;;;;;3.07;2.80;;;9.30;99.90;;;;;;5077284;28;20443;-56
2020/12/13 03:31:32;;;;;;;3.00;2.80;;;9.30;99.90;;;;;;5077105;28;20489;-55
2020/12/13 03:33:58;;;;;;;3.83;2.60;;;9.30;99.90;;;;;;5076672;28;20198;-56
2020/12/13 03:36:23;;;;;;;2.57;2.37;;;9.30;99.90;;;;;;5076158;28;20194;-57
2020/12/13 03:38:49;;;;;;;3.20;2.90;;;9.30;99.90;;;;;;5076629;28;20511;-57
2020/12/13 03:41:15;;;;;;;2.63;2.43;;;9.20;99.90;;;;;;5076426;28;20170;-55
2020/12/13 03:43:40;;;;;;;2.90;2.60;;;9.30;99.90;;;;;;5078552;28;20200;-58
2020/12/13 03:46:06;;;;;;;3.00;2.70;;;9.30;99.90;;;;;;5079721;28;20694;-59
2020/12/13 03:48:31;;;;;;;2.60;2.40;;;9.20;99.90;;;;;;5079240;28;20176;-57
2020/12/13 03:50:57;;;;;;;2.37;2.17;;;9.30;99.90;;;;;;5078557;28;20190;-57
2020/12/13 03:53:23;;;;;;;3.37;2.83;;;9.40;99.90;;;;;;5078449;28;20169;-57
2020/12/13 03:55:48;;;;;;;3.37;2.93;;;9.30;99.90;;;;;;5077728;28;20168;-54
2020/12/13 03:58:14;;;;;;;2.90;2.60;;;9.30;99.90;;;;;;5078326;28;20206;-56
2020/12/13 04:00:40;;;;;;;3.83;2.73;;;9.30;99.90;;;;;;5090459;28;20186;-58
2020/12/13 04:03:05;;;;;;;3.30;3.00;;;9.30;99.90;;;;;;5100640;28;20169;-59
2020/12/13 04:05:32;;;;;;;3.50;3.20;;;9.30;99.90;;;;;;5100285;28;20207;-57
2020/12/13 04:07:59;;;;;;;3.53;2.90;;;9.20;99.90;;;;;;5098543;28;20210;-59
2020/12/13 04:10:27;;;;;;;2.97;2.77;;;9.20;99.90;;;;;;5100301;28;20835;-58
2020/12/13 04:12:53;;;;;;;3.27;2.67;;;9.20;99.90;;;;;;5098660;28;20404;-59
2020/12/13 04:15:19;;;;;;;3.10;2.90;;;9.10;99.90;;;;;;5096022;28;20438;-59
2020/12/13 04:17:45;;;;;;;5.60;2.80;;;9.20;99.90;;;;;;5095770;28;20427;-59
2020/12/13 04:20:12;;;;;;;2.50;2.30;;;9.20;99.90;;;;;;5095647;28;20192;-58
2020/12/13 04:22:38;;;;;;;4.00;3.70;;;9.30;99.90;;;;;;5096057;28;20403;-54
2020/12/13 04:25:04;;;;;;;3.87;3.07;;;9.30;99.90;;;;;;5086267;28;20402;-57
2020/12/13 04:27:30;;;;;;;3.30;2.87;;;9.40;99.90;;;;;;5075711;28;20194;-52
2020/12/13 04:29:56;;;;;;;3.17;2.87;;;9.40;99.90;;;;;;5075765;28;20427;-54
2020/12/13 04:32:21;;;;;;;2.73;2.53;;;9.40;99.90;;;;;;5075655;28;20212;-59
2020/12/13 04:34:48;;;;;;;3.03;2.73;;;9.40;99.90;;;;;;5075713;28;20195;-57
2020/12/13 04:37:14;;;;;;;3.43;3.13;;;9.30;99.90;;;;;;5074668;28;20599;-56
2020/12/13 04:39:39;;;;;;;3.30;3.00;;;9.20;99.90;;;;;;5074891;28;20948;-57
2020/12/13 04:42:05;;;;;;;3.50;3.17;;;9.20;99.90;;;;;;5075043;28;20261;-55
2020/12/13 04:44:31;;;;;;;2.87;2.67;;;9.30;99.90;;;;;;5075489;28;20253;-57
2020/12/13 04:47:02;;;;;;;3.10;2.90;;;9.40;99.90;;;;;;5075367;28;20437;-57
2020/12/13 04:49:30;;;;;;;3.87;2.87;;;9.50;99.90;;;;;;5097598;28;20425;-58
2020/12/13 04:51:58;;;;;;;3.50;3.20;;;9.50;99.90;;;;;;5094971;28;20481;-55
2020/12/13 04:54:26;;;;;;;2.50;2.30;;;9.30;99.90;;;;;;5091358;28;20414;-58
2020/12/13 04:56:52;;;;;;;2.77;2.50;;;9.50;99.90;;;;;;5075152;28;20476;-57
2020/12/13 04:59:18;;;;;;;3.10;2.90;;;9.40;99.90;;;;;;5074850;28;20481;-59
2020/12/13 05:01:45;;;;;;;3.00;2.43;;;9.40;99.90;;;;;;5075104;28;20444;-58
2020/12/13 05:04:11;;;;;;;2.80;2.60;;;9.40;99.90;;;;;;5075606;28;20409;-59
2020/12/13 05:06:41;;;;;;;3.17;2.67;;;9.00;99.90;;;;;;5074620;28;20430;-59
2020/12/13 05:09:13;;;;;;;3.00;2.80;;;9.10;99.90;;;;;;5073379;28;20406;-58
2020/12/13 05:11:40;;;;;;;3.27;2.97;;;9.20;99.90;;;;;;5074597;28;20816;-59
2020/12/13 05:14:06;;;;;;;3.20;2.67;;;9.30;99.90;;;;;;5075252;28;20461;-58
2020/12/13 05:16:32;;;;;;;2.97;2.67;;;9.40;99.90;;;;;;5074707;28;20516;-58
2020/12/13 05:18:58;;;;;;;3.83;2.97;;;9.50;99.90;;;;;;5074199;28;20506;-58
2020/12/13 05:21:25;;;;;;;2.60;2.40;;;9.50;99.90;;;;;;5072900;28;20167;-55
2020/12/13 05:23:51;;;;;;;2.93;2.70;;;9.60;99.90;;;;;;5074313;28;20213;-55
2020/12/13 05:26:19;;;;;;;3.40;3.10;;;9.60;99.90;;;;;;5074610;28;20445;-57
2020/12/13 05:28:47;;;;;;;2.90;2.70;;;9.50;99.90;;;;;;5074617;28;20464;-55
2020/12/13 05:31:22;;;;;;;2.40;2.20;;;9.50;99.90;;;;;;5074563;28;20473;-57
2020/12/13 05:34:07;;;;;;;2.43;2.23;;;9.60;99.90;;;;;;5074534;28;20387;-59
2020/12/13 05:36:38;;;;;;;2.50;2.30;;;9.60;99.90;;;;;;5073775;28;21362;-59
2020/12/13 05:39:04;;;;;;;2.20;2.00;;;9.60;99.90;;;;;;5073770;28;20392;-60
2020/12/13 05:41:37;;;;;;;1.73;1.63;;;9.60;99.90;;;;;;5073907;28;20408;-58
2020/12/13 05:47:03;;;;;;;2.00;1.63;;;9.70;99.90;;;;;;5074159;28;20465;-55
2020/12/13 05:51:58;;;;;;;1.80;1.70;;;9.60;99.90;;;;;;5073627;28;20544;-55
2020/12/13 05:54:25;;;;;;;2.60;1.97;;;9.70;99.90;;;;;;5073764;28;20913;-56
2020/12/13 05:56:59;;;;;;;3.33;1.60;;;9.70;99.90;;;;;;5073953;28;20789;-58
2020/12/13 05:59:25;;;;;;;2.37;2.17;;;9.50;99.90;;;;;;5073943;28;20413;-58
2020/12/13 06:01:56;;;;;;;12.97;10.80;;;9.30;99.90;;;;;;5074140;28;20403;-58
2020/12/13 06:04:32;;;;;;;11.70;8.73;;;9.40;99.90;;;;;;5073531;28;20407;-54
2020/12/13 06:07:02;;;;;;;8.23;6.20;;;9.40;99.90;;;;;;5071789;28;20513;-57
2020/12/13 06:09:44;;;;;;;24.83;20.57;;;9.50;99.90;;;;;;5072770;28;20777;-58
2020/12/13 06:12:13;;;;;;;6.63;5.97;;;9.50;99.90;;;;;;5073761;28;20453;-59
2020/12/13 06:14:41;;;;;;;6.30;5.17;;;9.50;99.90;;;;;;5073422;28;20398;-56
2020/12/13 06:17:08;;;;;;;3.27;2.97;;;9.60;99.90;;;;;;5073513;28;20474;-59
2020/12/13 06:19:37;;;;;;;2.60;2.40;;;9.60;99.90;;;;;;5073365;28;20427;-59
2020/12/13 06:22:03;;;;;;;2.40;2.20;;;9.50;99.90;;;;;;5073005;28;20902;-58
2020/12/13 06:24:30;;;;;;;1.93;1.80;;;9.50;99.90;;;;;;5073805;28;20411;-58
2020/12/13 06:26:56;;;;;;;3.60;2.10;;;9.60;99.90;;;;;;5074140;28;20199;-58
2020/12/13 06:29:23;;;;;;;4.40;4.10;;;9.60;99.90;;;;;;5073675;28;20497;-57
2020/12/13 06:31:51;;;;;;;2.60;2.40;;;9.40;99.90;;;;;;5072918;28;20454;-58
2020/12/13 06:34:17;;;;;;;2.73;2.53;;;9.30;99.90;;;;;;5073329;28;20429;-58
2020/12/13 06:36:43;;;;;;;2.80;2.60;;;9.10;99.90;;;;;;5072943;28;20442;-56
2020/12/13 06:39:14;;;;;;;2.53;2.33;;;9.20;99.90;;;;;;5073421;28;20495;-57
2020/12/13 06:41:51;;;;;;;2.30;1.80;;;9.30;99.90;;;;;;5094766;28;20431;-54
2020/12/13 06:44:18;;;;;;;2.77;2.00;;;9.20;99.90;;;;;;5093813;28;20389;-54
2020/12/13 06:46:46;;;;;;;2.20;2.10;;;9.10;99.90;;;;;;5093368;28;20509;-53
2020/12/13 06:49:13;;;;;;;2.03;1.87;;;9.20;99.90;;;;;;5093264;28;20402;-55
2020/12/13 06:51:43;;;;;;;2.20;2.10;;;9.30;99.90;;;;;;5086895;28;20506;-54
2020/12/13 06:54:11;;;;;;;2.43;2.13;;;9.40;99.90;;;;;;5082138;28;20823;-57
2020/12/13 06:56:39;;;;;;;3.40;2.20;;;9.40;99.90;;;;;;5073451;28;20418;-54
2020/12/13 06:59:07;;;;;;;2.17;1.73;;;9.50;99.90;;;;;;5073167;28;20405;-56
2020/12/13 07:01:39;;;;;;;2.33;1.93;;;9.10;99.90;;;;;;5072757;28;20467;-59
2020/12/13 07:04:26;;;;;;;1.97;1.80;;;9.20;99.90;;;;;;5072688;28;20956;-59
2020/12/13 07:07:18;;;;;;;2.33;2.17;;;9.20;99.90;;;;;;5072822;28;20458;-58
2020/12/13 07:09:48;;;;;;;2.10;1.90;;;9.40;99.90;;;;;;5073564;28;20830;-57
2020/12/13 07:12:13;;;;;;;2.43;2.00;;;9.40;99.90;;;;;;5073127;28;20443;-57
2020/12/13 07:14:42;;;;;;;1.60;1.50;;;9.30;99.90;;;;;;5073716;28;20432;-57
2020/12/13 07:17:15;;;;;;;2.07;1.87;;;9.20;99.90;;;;;;5073028;28;20189;-54
2020/12/13 07:19:41;;;;;;;2.10;1.90;;;9.20;99.90;;;;;;5072922;28;20797;-56
2020/12/13 07:22:14;;;;;;;2.70;1.60;;;9.30;99.90;;;;;;5072379;28;20458;-56
2020/12/13 07:24:42;;;;;;;2.37;2.20;;;9.30;99.90;;;;;;5072810;28;20185;-53
2020/12/13 07:27:09;;;;;;;2.40;2.07;;;9.30;99.90;;;;;;5072976;28;20430;-57
2020/12/13 07:29:35;;;;;;;1.40;1.30;;;9.30;99.90;;;;;;5072806;28;20869;-58
2020/12/13 07:32:02;;;;;;;1.80;1.70;;;9.50;99.90;;;;;;5072742;28;20493;-59
2020/12/13 07:34:28;;;;;;;2.00;1.50;;;9.40;99.90;;;;;;5072465;28;20165;-55
2020/12/13 07:36:53;;;;;;;1.87;1.77;;;9.50;99.90;;;;;;5072317;28;20414;-56
2020/12/13 07:39:20;;;;;;;2.73;2.03;;;9.60;99.90;;;;;;5072825;28;20891;-55
2020/12/13 07:41:48;;;;;;;10.60;5.93;;;9.70;99.90;;;;;;5073225;28;20242;-55
2020/12/13 07:44:18;;;;;;;5.53;3.70;;;9.70;99.90;;;;;;5076947;28;20479;-57
2020/12/13 07:46:44;;;;;;;3.47;2.80;;;9.60;99.90;;;;;;5076357;28;20428;-57
2020/12/13 07:49:12;;;;;;;4.90;3.30;;;9.70;99.90;;;;;;5076198;28;20557;-58
2020/12/13 07:51:46;;;;;;;3.10;2.13;;;9.70;99.90;;;;;;5075966;28;20482;-55
2020/12/13 07:54:13;;;;;;;2.87;2.63;;;9.60;99.90;;;;;;5076472;28;20781;-55
2020/12/13 07:56:39;;;;;;;2.20;2.00;;;9.50;99.90;;;;;;5076190;28;20422;-55
2020/12/13 07:59:14;;;;;;;3.30;2.97;;;9.40;99.90;;;;;;5076110;28;20393;-59
2020/12/13 08:01:41;;;;;;;2.77;2.57;;;9.40;99.90;;;;;;5076283;28;20483;-58
2020/12/13 08:04:06;;;;;;;18.27;15.93;;;9.40;99.90;;;;;;5076367;28;20403;-58
2020/12/13 08:06:33;;;;;;;13.57;12.00;;;8.90;99.90;;;;;;5077131;28;20441;-58
2020/12/13 08:08:59;;;;;;;8.03;7.13;;;9.10;99.90;;;;;;5076741;28;20171;-57
2020/12/13 08:11:25;;;;;;;4.67;3.90;;;9.20;99.90;;;;;;5075958;28;20460;-60
2020/12/13 08:13:52;;;;;;;9.27;7.97;;;9.20;99.90;;;;;;5075513;28;20264;-58
2020/12/13 08:16:18;;;;;;;2.70;2.10;;;9.00;99.90;;;;;;5077667;28;20416;-58
2020/12/13 08:18:46;;;;;;;4.93;2.97;;;9.10;99.90;;;;;;5076687;28;20505;-58
2020/12/13 08:21:18;;;;;;;2.40;2.20;;;9.10;99.90;;;;;;5076343;28;20402;-55
2020/12/13 08:23:47;;;;;;;1.97;1.80;;;9.10;99.90;;;;;;5075850;28;20393;-58
2020/12/13 08:26:13;;;;;;;2.30;2.10;;;9.10;99.90;;;;;;5077260;28;20412;-58
2020/12/13 08:28:40;;;;;;;2.20;2.00;;;8.80;99.90;;;;;;5079031;28;20462;-57
2020/12/13 08:31:11;;;;;;;2.93;2.63;;;8.80;99.90;;;;;;5080900;28;20833;-57
2020/12/13 08:33:38;;;;;;;8.83;7.53;;;8.90;99.90;;;;;;5082490;28;20390;-58
2020/12/13 08:36:19;;;;;;;5.23;4.30;;;8.70;99.90;;;;;;5097652;28;20427;-58
2020/12/13 08:38:57;;;;;;;2.70;2.40;;;8.70;99.90;;;;;;5096423;28;20404;-58
2020/12/13 08:41:23;;;;;;;3.70;3.40;;;8.90;99.90;;;;;;5099648;28;20392;-57
2020/12/13 08:43:49;;;;;;;4.80;4.33;;;9.10;99.90;;;;;;5095376;28;20426;-56
2020/12/13 08:46:37;;;;;;;10.43;8.70;;;9.20;99.90;;;;;;5095228;28;20828;-56
2020/12/13 08:49:04;;;;;;;7.63;5.70;;;9.20;99.90;;;;;;5095660;28;20156;-59
2020/12/13 08:51:30;;;;;;;3.87;3.47;;;9.30;99.90;;;;;;5094972;28;20460;-59
2020/12/13 08:54:04;;;;;;;4.03;2.00;;;9.20;99.90;;;;;;5094587;28;20401;-58
2020/12/13 08:56:37;;;;;;;3.00;2.70;;;9.20;99.90;;;;;;5075311;28;20270;-54
2020/12/13 08:59:04;;;;;;;2.60;2.40;;;9.30;99.90;;;;;;5075369;28;20399;-54
2020/12/13 09:01:36;;;;;;;2.80;2.60;;;9.50;99.90;;;;;;5075419;28;20425;-56
2020/12/13 09:04:20;;;;;;;3.17;2.97;;;9.70;99.90;;;;;;5075231;28;20381;-59
2020/12/13 09:06:54;;;;;;;3.27;3.07;;;9.80;99.90;;;;;;5074555;28;20436;-57
2020/12/13 09:09:20;;;;;;;3.97;3.67;;;10.00;99.90;;;;;;5074317;28;20445;-58
2020/12/13 09:11:46;;;;;;;3.00;2.80;;;9.80;99.90;;;;;;5074360;28;20450;-56
2020/12/13 09:14:11;;;;;;;2.70;2.50;;;9.80;99.90;;;;;;5074339;28;20463;-55
2020/12/13 09:16:37;;;;;;;2.80;2.53;;;9.70;99.90;;;;;;5074823;28;20268;-54
2020/12/13 09:19:04;;;;;;;4.10;3.10;;;9.50;99.90;;;;;;5075073;28;20185;-56
2020/12/13 09:21:56;;;;;;;3.07;2.57;;;9.40;99.90;;;;;;5074364;28;20175;-59
2020/12/13 09:24:24;;;;;;;2.40;2.20;;;9.60;99.90;;;;;;5074512;28;20469;-57
2020/12/13 09:27:04;;;;;;;2.80;2.60;;;9.60;99.90;;;;;;5074431;28;20512;-56
2020/12/13 09:29:31;;;;;;;3.80;3.20;;;9.40;99.90;;;;;;5074320;28;20384;-57
2020/12/13 09:31:57;;;;;;;3.50;3.20;;;9.60;99.90;;;;;;5074006;28;20460;-55
2020/12/13 09:34:23;;;;;;;6.00;3.60;;;9.60;99.90;;;;;;5075974;28;20423;-56
2020/12/13 09:36:50;;;;;;;3.73;3.43;;;9.60;99.90;;;;;;5085275;28;20216;-58
2020/12/13 09:39:16;;;;;;;4.77;3.97;;;9.80;99.90;;;;;;5093484;28;20403;-57
2020/12/13 09:41:42;;;;;;;3.50;3.20;;;9.90;99.90;;;;;;5094710;28;20835;-58
2020/12/13 09:44:08;;;;;;;3.00;2.80;;;9.80;99.90;;;;;;5094628;28;20415;-60
2020/12/13 09:46:33;;;;;;;2.93;2.73;;;10.00;99.90;;;;;;5093868;28;20474;-58
2020/12/13 09:48:59;;;;;;;3.50;3.20;;;10.10;99.90;;;;;;5094304;28;20501;-58
2020/12/13 09:51:25;;;;;;;3.40;3.10;;;10.40;99.90;;;;;;5094230;28;20193;-57
2020/12/13 09:53:50;;;;;;;4.00;2.77;;;10.60;99.90;;;;;;5094153;28;20173;-58
2020/12/13 09:56:17;;;;;;;4.93;2.87;;;10.60;99.90;;;;;;5076280;28;20177;-53
2020/12/13 09:58:44;;;;;;;4.50;3.77;;;10.60;99.90;;;;;;5076068;28;20158;-55
2020/12/13 10:01:11;;;;;;;2.87;2.67;;;10.70;99.90;;;;;;5074342;28;20404;-55
2020/12/13 10:03:39;;;;;;;3.40;3.20;;;10.50;99.90;;;;;;5075107;28;20758;-53
2020/12/13 10:06:26;;;;;;;4.23;3.57;;;10.50;99.90;;;;;;5074413;28;20498;-54
2020/12/13 10:11:20;;;;;;;2.80;2.60;;;10.50;99.90;;;;;;5075177;28;20455;-56
2020/12/13 10:13:46;;;;;;;3.10;2.80;;;10.70;99.90;;;;;;5073966;28;20408;-56
2020/12/13 10:16:11;;;;;;;4.20;3.80;;;10.40;99.90;;;;;;5074461;28;20257;-54
2020/12/13 10:18:38;;;;;;;3.20;2.90;;;10.40;99.90;;;;;;5075274;28;20240;-54
2020/12/13 10:21:04;;;;;;;5.07;3.43;;;10.60;99.90;;;;;;5075075;28;20219;-53
2020/12/13 10:23:30;;;;;;;4.23;3.10;;;10.60;99.90;;;;;;5075062;28;20801;-53
2020/12/13 10:25:55;;;;;;;2.83;2.53;;;10.40;99.90;;;;;;5075161;28;20181;-55
2020/12/13 10:28:21;;;;;;;3.40;3.10;;;10.50;99.90;;;;;;5075284;28;20199;-53
2020/12/13 10:30:51;;;;;;;3.90;3.50;;;10.20;99.90;;;;;;5083869;28;20195;-53
2020/12/13 10:33:17;;;;;;;3.40;3.10;;;10.10;99.90;;;;;;5095228;28;20473;-53
2020/12/13 10:35:43;;;;;;;3.10;2.90;;;10.00;99.90;;;;;;5095297;28;20485;-55
2020/12/13 10:38:08;;;;;;;3.40;3.10;;;10.20;99.90;;;;;;5094888;28;20834;-58
2020/12/13 10:40:34;;;;;;;2.50;2.30;;;10.20;99.90;;;;;;5093863;28;20203;-57
2020/12/13 10:43:00;;;;;;;2.77;2.57;;;10.10;99.90;;;;;;5094000;28;20162;-59
2020/12/13 10:45:26;;;;;;;2.40;2.20;;;10.20;99.90;;;;;;5094025;28;20399;-58
2020/12/13 10:47:52;;;;;;;1.70;1.60;;;10.30;99.90;;;;;;5094376;28;20465;-56
2020/12/13 10:50:18;;;;;;;2.10;1.90;;;10.30;99.90;;;;;;5094723;28;20188;-56
2020/12/13 10:52:43;;;;;;;2.23;1.93;;;10.30;99.90;;;;;;5093754;28;20200;-54
2020/12/13 10:55:09;;;;;;;2.00;1.57;;;10.40;99.90;;;;;;5084300;28;20445;-54
2020/12/13 10:57:34;;;;;;;1.87;1.77;;;10.80;99.90;;;;;;5074958;28;20186;-55
2020/12/13 11:00:00;;;;;;;1.50;1.40;;;11.80;99.90;;;;;;5074320;28;20167;-56
2020/12/13 11:02:25;;;;;;;1.97;1.70;;;12.80;99.90;;;;;;5074199;28;20164;-60
2020/12/13 11:04:51;;;;;;;1.87;1.77;;;13.50;99.90;;;;;;5073896;28;20249;-59
2020/12/13 11:07:17;;;;;;;2.13;1.57;;;13.60;99.90;;;;;;5073148;28;20257;-53
2020/12/13 11:09:42;;;;;;;2.00;1.30;;;13.00;99.90;;;;;;5072185;28;20209;-55
2020/12/13 11:12:08;;;;;;;2.00;1.80;;;13.00;99.90;;;;;;5073821;28;20190;-58
2020/12/13 11:14:33;;;;;;;2.90;1.70;;;13.00;99.90;;;;;;5072573;28;20159;-58
2020/12/13 11:16:59;;;;;;;2.20;1.77;;;12.60;99.90;;;;;;5074499;28;20187;-55
2020/12/13 11:19:24;;;;;;;2.50;1.73;;;11.70;99.90;;;;;;5077497;28;20530;-53
2020/12/13 11:21:50;;;;;;;1.83;1.47;;;11.20;99.90;;;;;;5077825;28;20194;-58
2020/12/13 11:24:16;;;;;;;2.70;1.70;;;11.20;99.90;;;;;;5077721;28;20166;-56
2020/12/13 11:26:46;;;;;;;2.63;1.80;;;11.10;99.90;;;;;;5078113;28;20203;-56
2020/12/13 11:29:12;;;;;;;4.57;1.67;;;11.10;99.90;;;;;;5077950;28;20220;-58
2020/12/13 11:31:38;;;;;;;3.00;2.07;;;10.80;99.90;;;;;;5078937;28;20491;-58
2020/12/13 11:34:03;;;;;;;3.07;1.93;;;10.90;99.90;;;;;;5080706;28;20536;-56
2020/12/13 11:36:29;;;;;;;2.50;2.30;;;10.90;99.90;;;;;;5081024;28;20197;-58
2020/12/13 11:38:54;;;;;;;3.30;2.37;;;10.70;99.90;;;;;;5080755;28;20181;-57
2020/12/13 11:41:25;;;;;;;3.17;2.03;;;10.60;99.90;;;;;;5078946;28;20235;-53
2020/12/13 11:43:50;;;;;;;2.90;2.27;;;10.20;99.90;;;;;;5077479;28;20150;-55
2020/12/13 11:46:16;;;;;;;4.10;2.00;;;10.10;99.90;;;;;;5077967;28;20405;-57
2020/12/13 11:48:42;;;;;;;2.47;2.10;;;9.80;99.90;;;;;;5082404;28;20181;-57
2020/12/13 11:51:07;;;;;;;3.33;2.27;;;9.90;99.90;;;;;;5081206;28;20216;-58
2020/12/13 11:53:33;;;;;;;2.77;2.00;;;10.00;99.90;;;;;;5079413;28;20243;-57
2020/12/13 11:55:58;;;;;;;2.63;2.13;;;10.10;99.90;;;;;;5085424;28;20208;-57
2020/12/13 11:58:24;;;;;;;2.50;2.30;;;10.10;99.90;;;;;;5101401;28;20554;-57
2020/12/13 12:00:49;;;;;;;2.87;2.30;;;10.20;99.90;;;;;;5097144;28;20536;-58
2020/12/13 12:03:15;;;;;;;2.67;2.20;;;10.30;99.90;;;;;;5096720;28;20230;-57
2020/12/13 12:05:40;;;;;;;4.07;2.97;;;10.50;99.90;;;;;;5096761;28;20184;-55
2020/12/13 12:08:06;;;;;;;4.60;2.60;;;10.60;99.90;;;;;;5096211;28;20203;-57
2020/12/13 12:10:32;;;;;;;3.20;2.50;;;10.70;99.90;;;;;;5096900;28;20235;-56
2020/12/13 12:12:57;;;;;;;3.03;1.90;;;10.40;99.90;;;;;;5096540;28;20172;-57
2020/12/13 12:15:23;;;;;;;2.30;1.97;;;10.20;99.90;;;;;;5095586;28;20176;-57
2020/12/13 12:17:48;;;;;;;3.63;2.73;;;10.20;99.90;;;;;;5095680;28;20189;-57
2020/12/13 12:20:17;;;;;;;8.83;6.87;;;10.30;99.90;;;;;;5096557;28;20192;-54
2020/12/13 12:22:45;;;;;;;5.20;2.70;;;10.50;99.90;;;;;;5095869;28;20176;-57
2020/12/13 12:25:11;;;;;;;2.57;2.37;;;10.30;99.90;;;;;;5086379;28;20910;-57
2020/12/13 12:27:37;;;;;;;8.00;6.77;;;10.30;99.90;;;;;;5076056;28;20844;-55
2020/12/13 12:30:05;;;;;;;4.00;2.80;;;10.50;99.90;;;;;;5075072;28;20404;-56
2020/12/13 12:32:31;;;;;;;4.80;2.40;;;10.40;99.90;;;;;;5075599;28;20209;-55
2020/12/13 12:34:56;;;;;;;3.20;2.33;;;10.40;99.90;;;;;;5075802;28;20412;-57
2020/12/13 12:37:22;;;;;;;1.93;1.73;;;10.60;99.90;;;;;;5096441;28;20559;-56
2020/12/13 12:39:48;;;;;;;2.90;2.10;;;10.40;99.90;;;;;;5095565;28;20175;-54
2020/12/13 12:42:14;;;;;;;3.53;2.00;;;10.60;99.90;;;;;;5095810;28;20913;-57
2020/12/13 12:44:39;;;;;;;3.00;1.90;;;10.60;99.90;;;;;;5095021;28;20183;-57
2020/12/13 12:47:06;;;;;;;3.50;2.30;;;10.70;99.90;;;;;;5094916;28;20225;-56
2020/12/13 12:49:32;;;;;;;5.93;5.43;;;10.40;99.90;;;;;;5095528;28;20180;-56
2020/12/13 12:51:57;;;;;;;3.70;2.00;;;10.50;99.90;;;;;;5095342;28;20458;-58
2020/12/13 12:54:23;;;;;;;2.50;1.97;;;10.50;99.90;;;;;;5091528;28;20208;-58
2020/12/13 12:56:48;;;;;;;3.60;3.00;;;10.40;99.90;;;;;;5074731;28;20410;-53
2020/12/13 12:59:22;;;;;;;2.60;2.40;;;10.80;99.90;;;;;;5075506;28;20170;-56
2020/12/13 13:01:49;;;;;;;5.17;3.20;;;10.70;99.90;;;;;;5074458;28;20177;-53